createdAt,value
2019-03-20T00:00:32.666Z,-0.2
2019-03-20T00:01:45.261Z,-0.2
2019-03-20T00:02:47.286Z,-0.1
2019-03-20T00:03:49.326Z,-0.2
2019-03-20T00:04:51.405Z,-0.2
2019-03-20T00:05:53.455Z,-0.2
2019-03-20T00:06:55.626Z,-0.3
2019-03-20T00:07:58.244Z,-0.3
2019-03-20T00:09:00.770Z,-0.4
2019-03-20T00:10:02.830Z,-0.4
2019-03-20T00:11:04.986Z,-0.4
2019-03-20T00:12:07.017Z,-0.4
2019-03-20T00:13:09.045Z,-0.4
2019-03-20T00:14:11.128Z,-0.4
2019-03-20T00:15:13.174Z,-0.4
2019-03-20T00:16:15.901Z,-0.4
2019-03-20T00:17:18.211Z,-0.4
2019-03-20T00:18:20.245Z,-0.3
2019-03-20T00:19:22.275Z,-0.3
2019-03-20T00:20:24.323Z,-0.3
2019-03-20T00:21:26.360Z,-0.3
2019-03-20T00:22:28.397Z,-0.3
2019-03-20T00:23:30.697Z,-0.3
2019-03-20T00:24:32.735Z,-0.4
2019-03-20T00:25:35.053Z,-0.4
2019-03-20T00:26:37.081Z,-0.4
2019-03-20T00:27:39.410Z,-0.5
2019-03-20T00:28:41.724Z,-0.5
2019-03-20T00:29:43.761Z,-0.5
2019-03-20T00:30:45.783Z,-0.5
2019-03-20T00:31:48.114Z,-0.5
2019-03-20T00:32:50.157Z,-0.4
2019-03-20T00:33:52.483Z,-0.4
2019-03-20T00:35:03.104Z,-0.4
2019-03-20T00:36:05.851Z,-0.4
2019-03-20T00:37:07.894Z,-0.4
2019-03-20T00:38:09.933Z,-0.4
2019-03-20T00:39:12.243Z,-0.4
2019-03-20T00:40:14.274Z,-0.4
2019-03-20T00:41:16.330Z,-0.3
2019-03-20T00:42:18.363Z,-0.3
2019-03-20T00:43:20.679Z,-0.3
2019-03-20T00:44:22.707Z,-0.3
2019-03-20T00:45:24.726Z,-0.3
2019-03-20T00:46:26.750Z,-0.3
2019-03-20T00:47:28.793Z,-0.3
2019-03-20T00:48:30.805Z,-0.2
2019-03-20T00:49:32.850Z,-0.3
2019-03-20T00:50:34.891Z,-0.3
2019-03-20T00:51:36.918Z,-0.3
2019-03-20T00:52:39.239Z,-0.3
2019-03-20T00:53:41.277Z,-0.3
2019-03-20T00:54:43.309Z,-0.3
2019-03-20T00:55:45.332Z,-0.3
2019-03-20T00:56:47.375Z,-0.3
2019-03-20T00:57:49.441Z,-0.3
2019-03-20T00:58:51.508Z,-0.3
2019-03-20T00:59:53.547Z,-0.3
2019-03-20T01:00:55.850Z,-0.4
2019-03-20T01:01:57.890Z,-0.4
2019-03-20T01:02:59.929Z,-0.4
2019-03-20T01:04:02.022Z,-0.3
2019-03-20T01:05:13.941Z,-0.4
2019-03-20T01:06:16.366Z,-0.4
2019-03-20T01:07:18.417Z,-0.4
2019-03-20T01:08:20.437Z,-0.4
2019-03-20T01:09:22.524Z,-0.4
2019-03-20T01:10:25.538Z,-0.4
2019-03-20T01:11:27.884Z,-0.4
2019-03-20T01:12:29.923Z,-0.4
2019-03-20T01:13:31.971Z,-0.3
2019-03-20T01:14:34.277Z,-0.4
2019-03-20T01:15:36.305Z,-0.4
2019-03-20T01:16:38.616Z,-0.4
2019-03-20T01:17:41.070Z,-0.4
2019-03-20T01:18:43.124Z,-0.4
2019-03-20T01:19:45.146Z,-0.4
2019-03-20T01:20:47.210Z,-0.4
2019-03-20T01:21:49.566Z,-0.4
2019-03-20T01:22:51.590Z,-0.4
2019-03-20T01:23:53.641Z,-0.4
2019-03-20T01:24:55.667Z,-0.4
2019-03-20T01:25:57.972Z,-0.5
2019-03-20T01:27:00.001Z,-0.5
2019-03-20T01:28:02.035Z,-0.5
2019-03-20T01:29:04.076Z,-0.5
2019-03-20T01:30:06.364Z,-0.6
2019-03-20T01:31:08.697Z,-0.5
2019-03-20T01:32:10.719Z,-0.5
2019-03-20T01:33:12.806Z,-0.6
2019-03-20T01:34:14.869Z,-0.5
2019-03-20T01:35:25.174Z,-0.5
2019-03-20T01:36:27.230Z,-0.5
2019-03-20T01:37:29.265Z,-0.2
2019-03-20T01:38:31.274Z,-0.2
2019-03-20T01:39:33.327Z,-0.1
2019-03-20T01:40:35.356Z,-0.2
2019-03-20T01:41:39.333Z,-0.2
2019-03-20T01:42:41.411Z,-0.1
2019-03-20T01:43:43.429Z,-0.1
2019-03-20T01:44:45.451Z,0
2019-03-20T01:45:47.487Z,0
2019-03-20T01:46:49.527Z,0
2019-03-20T01:47:51.836Z,0
2019-03-20T01:48:53.865Z,0
2019-03-20T01:49:55.891Z,0
2019-03-20T01:50:57.920Z,0
2019-03-20T01:52:00.246Z,0
2019-03-20T01:53:02.272Z,0
2019-03-20T01:54:04.301Z,0
2019-03-20T01:55:06.635Z,0
2019-03-20T01:56:08.665Z,0.1
2019-03-20T01:57:10.706Z,0.1
2019-03-20T01:58:12.741Z,0.3
2019-03-20T01:59:14.758Z,0.5
2019-03-20T02:00:16.798Z,0.4
2019-03-20T02:01:18.839Z,0.3
2019-03-20T02:02:20.868Z,0.2
2019-03-20T02:03:22.879Z,0.4
2019-03-20T02:04:24.913Z,0.4
2019-03-20T02:05:37.529Z,0.3
2019-03-20T02:06:39.554Z,0.3
2019-03-20T02:07:41.629Z,0.4
2019-03-20T02:08:43.931Z,0.4
2019-03-20T02:09:45.959Z,0.4
2019-03-20T02:10:47.980Z,0.4
2019-03-20T02:11:50.023Z,0.5
2019-03-20T02:12:52.049Z,0.5
2019-03-20T02:13:54.464Z,0.5
2019-03-20T02:14:56.867Z,0.5
2019-03-20T02:15:58.900Z,0.6
2019-03-20T02:17:00.912Z,0.6
2019-03-20T02:18:03.531Z,0.7
2019-03-20T02:19:05.629Z,0.6
2019-03-20T02:20:07.674Z,0.7
2019-03-20T02:21:09.691Z,0.8
2019-03-20T02:22:11.723Z,0.8
2019-03-20T02:23:14.035Z,0.9
2019-03-20T02:24:16.348Z,0.9
2019-03-20T02:25:18.386Z,0.9
2019-03-20T02:26:20.413Z,1
2019-03-20T02:27:22.441Z,1
2019-03-20T02:28:24.872Z,1
2019-03-20T02:29:26.901Z,1.1
2019-03-20T02:30:30.302Z,1.1
2019-03-20T02:31:32.844Z,1.1
2019-03-20T02:32:34.865Z,1.1
2019-03-20T02:33:37.225Z,1.2
2019-03-20T02:34:39.605Z,1.2
2019-03-20T02:35:53.326Z,1
2019-03-20T02:36:55.934Z,1
2019-03-20T02:37:58.394Z,1
2019-03-20T02:39:00.457Z,1
2019-03-20T02:40:02.496Z,1
2019-03-20T02:41:04.924Z,0.9
2019-03-20T02:42:07.812Z,0.9
2019-03-20T02:43:09.848Z,0.9
2019-03-20T02:44:11.884Z,0.9
2019-03-20T02:45:14.026Z,0.9
2019-03-20T02:46:16.141Z,1
2019-03-20T02:47:18.590Z,1
2019-03-20T02:48:20.630Z,1
2019-03-20T02:49:22.691Z,1.1
2019-03-20T02:50:24.823Z,1.2
2019-03-20T02:51:27.199Z,1.2
2019-03-20T02:52:29.303Z,1.1
2019-03-20T02:53:32.303Z,1.1
2019-03-20T02:54:34.636Z,1
2019-03-20T02:55:37.001Z,1
2019-03-20T02:56:39.824Z,1
2019-03-20T02:57:42.290Z,1
2019-03-20T02:58:44.658Z,1
2019-03-20T02:59:47.664Z,1.1
2019-03-20T03:00:49.709Z,1
2019-03-20T03:01:51.780Z,1
2019-03-20T03:02:54.499Z,1
2019-03-20T03:03:56.545Z,1.1
2019-03-20T03:04:58.876Z,1.1
2019-03-20T03:06:08.809Z,1.1
2019-03-20T03:07:11.545Z,1
2019-03-20T03:08:14.160Z,1
2019-03-20T03:09:16.206Z,1
2019-03-20T03:10:19.653Z,1
2019-03-20T03:11:21.724Z,1
2019-03-20T03:12:24.061Z,1
2019-03-20T03:13:26.128Z,1
2019-03-20T03:14:28.295Z,0.9
2019-03-20T03:15:30.343Z,1
2019-03-20T03:16:32.671Z,0.9
2019-03-20T03:17:35.074Z,0.9
2019-03-20T03:18:37.212Z,0.8
2019-03-20T03:19:39.542Z,0.9
2019-03-20T03:20:41.629Z,1
2019-03-20T03:21:43.658Z,1
2019-03-20T03:22:46.236Z,1
2019-03-20T03:23:48.572Z,0.9
2019-03-20T03:24:50.911Z,0.9
2019-03-20T03:25:53.246Z,0.9
2019-03-20T03:26:55.270Z,0.9
2019-03-20T03:27:57.611Z,0.9
2019-03-20T03:29:00.438Z,0.9
2019-03-20T03:30:03.099Z,0.9
2019-03-20T03:31:05.641Z,1
2019-03-20T03:32:08.120Z,1
2019-03-20T03:33:10.493Z,1
2019-03-20T03:34:12.893Z,1
2019-03-20T03:35:21.201Z,1
2019-03-20T03:36:23.650Z,1.1
2019-03-20T03:37:25.999Z,1
2019-03-20T03:38:28.076Z,1.1
2019-03-20T03:39:30.122Z,1
2019-03-20T03:40:32.468Z,1.1
2019-03-20T03:41:34.905Z,1
2019-03-20T03:42:37.239Z,1.2
2019-03-20T03:43:39.301Z,1.2
2019-03-20T03:44:41.662Z,1.2
2019-03-20T03:45:43.779Z,1.2
2019-03-20T03:46:46.503Z,1.2
2019-03-20T03:47:48.572Z,1.2
2019-03-20T03:48:50.640Z,1.3
2019-03-20T03:49:53.082Z,1.3
2019-03-20T03:50:55.530Z,1.3
2019-03-20T03:51:57.560Z,1.4
2019-03-20T03:52:59.620Z,1.4
2019-03-20T03:54:01.678Z,1.4
2019-03-20T03:55:03.760Z,1.4
2019-03-20T03:56:06.101Z,1.4
2019-03-20T03:57:08.180Z,1.4
2019-03-20T03:58:10.226Z,1.3
2019-03-20T03:59:12.557Z,1.3
2019-03-20T04:00:15.027Z,1.3
2019-03-20T04:01:17.360Z,1.3
2019-03-20T04:02:19.401Z,1.3
2019-03-20T04:03:21.732Z,1.3
2019-03-20T04:04:24.450Z,1.3
2019-03-20T04:05:26.508Z,1.2
2019-03-20T04:06:37.150Z,1.3
2019-03-20T04:07:39.783Z,1.1
2019-03-20T04:08:41.805Z,1.2
2019-03-20T04:09:43.868Z,1.2
2019-03-20T04:10:45.891Z,1.2
2019-03-20T04:11:47.921Z,1.3
2019-03-20T04:12:50.018Z,1.2
2019-03-20T04:13:52.767Z,1.1
2019-03-20T04:14:55.159Z,1.1
2019-03-20T04:15:57.765Z,1
2019-03-20T04:16:59.883Z,1.2
2019-03-20T04:18:03.170Z,1.2
2019-03-20T04:19:05.260Z,1.1
2019-03-20T04:20:07.775Z,1.1
2019-03-20T04:21:10.468Z,1.1
2019-03-20T04:22:12.553Z,1.1
2019-03-20T04:23:14.586Z,1.1
2019-03-20T04:24:17.256Z,1.1
2019-03-20T04:25:19.865Z,1
2019-03-20T04:26:21.906Z,1
2019-03-20T04:27:24.664Z,1
2019-03-20T04:28:27.408Z,1.1
2019-03-20T04:29:29.748Z,1.1
2019-03-20T04:30:31.781Z,1.2
2019-03-20T04:31:33.830Z,1.1
2019-03-20T04:32:36.444Z,1.1
2019-03-20T04:33:39.137Z,1.1
2019-03-20T04:34:41.565Z,1.1
2019-03-20T04:35:43.623Z,1.1
2019-03-20T04:36:49.506Z,1.1
2019-03-20T04:37:51.865Z,1.2
2019-03-20T04:38:53.987Z,1.3
2019-03-20T04:39:56.305Z,1.3
2019-03-20T04:40:58.318Z,1.3
2019-03-20T04:42:00.371Z,1.4
2019-03-20T04:43:02.842Z,1.3
2019-03-20T04:44:05.213Z,1.3
2019-03-20T04:45:07.232Z,1.3
2019-03-20T04:46:09.570Z,1.3
2019-03-20T04:47:11.877Z,1.3
2019-03-20T04:48:14.190Z,1.3
2019-03-20T04:49:16.210Z,1.3
2019-03-20T04:50:18.305Z,1.3
2019-03-20T04:51:20.325Z,1.3
2019-03-20T04:52:22.351Z,1.3
2019-03-20T04:53:24.385Z,1.3
2019-03-20T04:54:26.397Z,1.3
2019-03-20T04:55:28.441Z,1.2
2019-03-20T04:56:30.460Z,1.3
2019-03-20T04:57:32.547Z,1.3
2019-03-20T04:58:34.598Z,1.3
2019-03-20T04:59:36.646Z,1.3
2019-03-20T05:00:38.736Z,1.3
2019-03-20T05:01:40.772Z,1.3
2019-03-20T05:02:42.815Z,1.3
2019-03-20T05:03:44.838Z,1.3
2019-03-20T05:04:46.866Z,1.3
2019-03-20T05:05:49.204Z,1.3
2019-03-20T05:07:00.570Z,1.3
2019-03-20T05:08:02.942Z,1.3
2019-03-20T05:09:05.270Z,1.3
2019-03-20T05:10:07.678Z,1.3
2019-03-20T05:11:09.698Z,1.2
2019-03-20T05:12:12.059Z,1.2
2019-03-20T05:13:14.111Z,1.1
2019-03-20T05:14:16.133Z,1.2
2019-03-20T05:15:18.503Z,1.2
2019-03-20T05:16:20.810Z,1.3
2019-03-20T05:17:22.846Z,1.3
2019-03-20T05:18:24.882Z,1.3
2019-03-20T05:19:26.921Z,1.4
2019-03-20T05:20:28.950Z,1.4
2019-03-20T05:21:31.427Z,1.4
2019-03-20T05:22:33.463Z,1.4
2019-03-20T05:23:35.803Z,1.4
2019-03-20T05:24:37.831Z,1.4
2019-03-20T05:25:39.927Z,1.4
2019-03-20T05:26:41.960Z,1.4
2019-03-20T05:27:44.274Z,1.3
2019-03-20T05:28:46.591Z,1.3
2019-03-20T05:29:48.612Z,1.3
2019-03-20T05:30:50.657Z,1.3
2019-03-20T05:31:52.673Z,1.3
2019-03-20T05:32:54.727Z,1.3
2019-03-20T05:33:56.765Z,1.3
2019-03-20T05:34:58.792Z,1.3
2019-03-20T05:36:00.828Z,1.4
2019-03-20T05:37:11.859Z,1.4
2019-03-20T05:38:14.193Z,1.3
2019-03-20T05:39:17.295Z,1.3
2019-03-20T05:40:19.334Z,1.3
2019-03-20T05:41:21.436Z,1.3
2019-03-20T05:42:23.460Z,1.3
2019-03-20T05:43:25.503Z,1.3
2019-03-20T05:44:27.830Z,1.3
2019-03-20T05:45:29.865Z,1.3
2019-03-20T05:46:31.902Z,1.3
2019-03-20T05:47:33.932Z,1.3
2019-03-20T05:48:35.972Z,1.3
2019-03-20T05:49:38.001Z,1.3
2019-03-20T05:50:40.024Z,1.3
2019-03-20T05:51:42.094Z,1.3
2019-03-20T05:52:44.111Z,1.2
2019-03-20T05:53:46.137Z,1.2
2019-03-20T05:54:48.168Z,1.2
2019-03-20T05:55:50.209Z,1.3
2019-03-20T05:56:52.222Z,1.3
2019-03-20T05:57:54.280Z,1.2
2019-03-20T05:58:56.317Z,1.2
2019-03-20T05:59:58.355Z,1.2
2019-03-20T06:01:00.393Z,1.3
2019-03-20T06:02:02.685Z,1.3
2019-03-20T06:03:04.721Z,1.2
2019-03-20T06:04:07.031Z,1.3
2019-03-20T06:05:09.083Z,1.3
2019-03-20T06:06:11.397Z,1.3
2019-03-20T06:07:22.981Z,1.3
2019-03-20T06:08:25.030Z,1.4
2019-03-20T06:09:27.063Z,1.4
2019-03-20T06:10:29.100Z,1.4
2019-03-20T06:11:31.136Z,1.4
2019-03-20T06:12:33.153Z,1.4
2019-03-20T06:13:35.177Z,1.4
2019-03-20T06:14:37.212Z,1.4
2019-03-20T06:15:39.523Z,1.5
2019-03-20T06:16:41.554Z,1.5
2019-03-20T06:17:43.611Z,1.5
2019-03-20T06:18:45.630Z,1.5
2019-03-20T06:19:47.659Z,1.6
2019-03-20T06:20:49.729Z,1.6
2019-03-20T06:21:51.739Z,1.6
2019-03-20T06:22:53.783Z,1.6
2019-03-20T06:23:55.809Z,1.7
2019-03-20T06:24:57.830Z,1.7
2019-03-20T06:25:59.881Z,1.7
2019-03-20T06:27:01.933Z,1.8
2019-03-20T06:28:04.358Z,1.8
2019-03-20T06:29:06.381Z,1.8
2019-03-20T06:30:08.427Z,1.9
2019-03-20T06:31:10.442Z,1.9
2019-03-20T06:32:12.486Z,2
2019-03-20T06:33:14.574Z,2
2019-03-20T06:34:16.594Z,2
2019-03-20T06:35:19.041Z,2.1
2019-03-20T06:36:21.076Z,2.1
2019-03-20T06:37:33.807Z,2.2
2019-03-20T06:38:35.873Z,2.2
2019-03-20T06:39:37.915Z,2.3
2019-03-20T06:40:39.941Z,2.3
2019-03-20T06:41:42.262Z,2.4
2019-03-20T06:42:44.287Z,2.4
2019-03-20T06:43:46.599Z,2.4
2019-03-20T06:44:48.624Z,2.4
2019-03-20T06:45:50.644Z,2.4
2019-03-20T06:46:52.674Z,2.4
2019-03-20T06:47:55.008Z,2.4
2019-03-20T06:48:57.113Z,2.4
2019-03-20T06:49:59.148Z,2.4
2019-03-20T06:51:01.185Z,2.4
2019-03-20T06:52:03.208Z,2.4
2019-03-20T06:53:05.910Z,2.4
2019-03-20T06:54:07.950Z,2.4
2019-03-20T06:55:09.963Z,2.5
2019-03-20T06:56:11.995Z,2.5
2019-03-20T06:57:14.028Z,2.5
2019-03-20T06:58:16.058Z,2.5
2019-03-20T06:59:18.108Z,2.5
2019-03-20T07:00:20.545Z,2.5
2019-03-20T07:01:22.573Z,2.5
2019-03-20T07:02:24.590Z,2.5
2019-03-20T07:03:27.019Z,2.5
2019-03-20T07:04:29.327Z,2.5
2019-03-20T07:05:31.354Z,2.5
2019-03-20T07:06:33.770Z,2.6
2019-03-20T07:07:45.410Z,2.6
2019-03-20T07:08:47.446Z,2.7
2019-03-20T07:09:49.769Z,2.7
2019-03-20T07:10:51.812Z,2.7
2019-03-20T07:11:53.821Z,2.8
2019-03-20T07:12:55.861Z,2.8
2019-03-20T07:13:57.900Z,2.9
2019-03-20T07:14:59.926Z,2.9
2019-03-20T07:16:02.167Z,2.9
2019-03-20T07:17:04.760Z,3
2019-03-20T07:18:06.790Z,3
2019-03-20T07:19:08.815Z,3.1
2019-03-20T07:20:10.855Z,3.2
2019-03-20T07:21:13.275Z,3.2
2019-03-20T07:22:15.305Z,3.3
2019-03-20T07:23:17.618Z,3.3
2019-03-20T07:24:19.652Z,3.4
2019-03-20T07:25:21.673Z,3.5
2019-03-20T07:26:24.087Z,3.5
2019-03-20T07:27:26.116Z,3.5
2019-03-20T07:28:28.127Z,3.6
2019-03-20T07:29:30.199Z,3.7
2019-03-20T07:30:32.308Z,3.8
2019-03-20T07:31:34.338Z,3.9
2019-03-20T07:32:36.389Z,3.9
2019-03-20T07:33:38.715Z,4
2019-03-20T07:34:41.046Z,4
2019-03-20T07:35:43.377Z,4.1
2019-03-20T07:36:45.432Z,4.2
2019-03-20T07:37:57.654Z,4.2
2019-03-20T07:38:59.689Z,4.2
2019-03-20T07:40:01.731Z,4.2
2019-03-20T07:41:03.818Z,4.3
2019-03-20T07:42:05.865Z,4.3
2019-03-20T07:43:10.389Z,4.3
2019-03-20T07:44:12.429Z,4.3
2019-03-20T07:45:14.860Z,4.4
2019-03-20T07:46:16.902Z,4.5
2019-03-20T07:47:18.936Z,4.5
2019-03-20T07:48:23.578Z,4.6
2019-03-20T07:49:25.935Z,4.7
2019-03-20T07:50:27.968Z,4.8
2019-03-20T07:51:29.995Z,4.9
2019-03-20T07:52:32.033Z,5
2019-03-20T07:53:34.078Z,5.1
2019-03-20T07:54:36.126Z,5.2
2019-03-20T07:55:38.165Z,5.2
2019-03-20T07:56:40.195Z,5.1
2019-03-20T07:57:42.237Z,5.3
2019-03-20T07:58:44.275Z,5.4
2019-03-20T07:59:46.311Z,5.4
2019-03-20T08:00:48.349Z,5.5
2019-03-20T08:01:50.372Z,5.8
2019-03-20T08:02:52.411Z,5.8
2019-03-20T08:03:54.843Z,5.9
2019-03-20T08:04:56.880Z,6
2019-03-20T08:05:58.927Z,6.3
2019-03-20T08:07:00.960Z,6.4
2019-03-20T08:08:08.903Z,6.5
2019-03-20T08:09:10.938Z,6.3
2019-03-20T08:10:12.995Z,6.1
2019-03-20T08:11:15.027Z,6.2
2019-03-20T08:12:17.071Z,6.5
2019-03-20T08:13:19.117Z,6.7
2019-03-20T08:14:21.145Z,7
2019-03-20T08:15:23.187Z,6.9
2019-03-20T08:16:25.224Z,6.7
2019-03-20T08:17:27.261Z,6.6
2019-03-20T08:18:29.570Z,6.6
2019-03-20T08:19:32.000Z,6.9
2019-03-20T08:20:34.030Z,6.8
2019-03-20T08:21:36.352Z,6.9
2019-03-20T08:22:38.428Z,7.2
2019-03-20T08:23:40.450Z,7.7
2019-03-20T08:24:42.496Z,7.8
2019-03-20T08:25:44.546Z,7.8
2019-03-20T08:26:46.584Z,7.8
2019-03-20T08:27:48.616Z,7.6
2019-03-20T08:28:50.655Z,7.6
2019-03-20T08:29:52.985Z,7.6
2019-03-20T08:30:55.019Z,7.8
2019-03-20T08:31:57.066Z,7.5
2019-03-20T08:32:59.097Z,7.6
2019-03-20T08:34:01.417Z,7.4
2019-03-20T08:35:03.477Z,7.4
2019-03-20T08:36:05.505Z,7.3
2019-03-20T08:37:07.821Z,7.5
2019-03-20T08:38:19.903Z,7.5
2019-03-20T08:39:21.951Z,7.5
2019-03-20T08:40:23.997Z,7.4
2019-03-20T08:41:26.038Z,7.4
2019-03-20T08:42:28.079Z,7.2
2019-03-20T08:43:30.109Z,7.2
2019-03-20T08:44:32.431Z,7.3
2019-03-20T08:45:34.467Z,7.3
2019-03-20T08:46:36.509Z,7.3
2019-03-20T08:47:38.845Z,7.4
2019-03-20T08:48:41.535Z,7.5
2019-03-20T08:49:44.983Z,7.5
2019-03-20T08:50:47.044Z,7.4
2019-03-20T08:51:49.094Z,7.5
2019-03-20T08:52:51.909Z,7.6
2019-03-20T08:53:57.210Z,7.5
2019-03-20T08:54:59.277Z,7.4
2019-03-20T08:56:01.403Z,7.4
2019-03-20T08:57:03.455Z,7.4
2019-03-20T08:58:05.913Z,7.5
2019-03-20T08:59:08.009Z,7.6
2019-03-20T09:00:10.072Z,7.7
2019-03-20T09:01:12.189Z,7.5
2019-03-20T09:02:14.223Z,7.6
2019-03-20T09:03:16.333Z,7.6
2019-03-20T09:04:18.393Z,7.7
2019-03-20T09:05:20.545Z,7.7
2019-03-20T09:06:22.595Z,7.7
2019-03-20T09:07:24.633Z,7.8
2019-03-20T09:08:30.996Z,7.7
2019-03-20T09:09:33.129Z,7.8
2019-03-20T09:10:35.465Z,7.7
2019-03-20T09:11:37.516Z,7.8
2019-03-20T09:12:39.550Z,7.8
2019-03-20T09:13:41.625Z,7.8
2019-03-20T09:14:43.666Z,7.8
2019-03-20T09:15:45.711Z,7.9
2019-03-20T09:16:47.756Z,8.1
2019-03-20T09:17:49.809Z,8.1
2019-03-20T09:18:52.043Z,8.1
2019-03-20T09:19:54.351Z,8.2
2019-03-20T09:20:56.429Z,8.3
2019-03-20T09:21:58.502Z,8.4
2019-03-20T09:23:00.557Z,8.5
2019-03-20T09:24:02.879Z,8.5
2019-03-20T09:25:04.999Z,8.5
2019-03-20T09:26:07.139Z,8.6
2019-03-20T09:27:09.176Z,8.7
2019-03-20T09:28:11.505Z,8.8
2019-03-20T09:29:20.148Z,8.8
2019-03-20T09:30:22.264Z,8.8
2019-03-20T09:31:24.311Z,8.9
2019-03-20T09:32:26.355Z,8.9
2019-03-20T09:33:28.386Z,8.9
2019-03-20T09:34:30.435Z,8.9
2019-03-20T09:35:32.889Z,9
2019-03-20T09:36:44.807Z,9.1
2019-03-20T09:37:54.432Z,9.2
2019-03-20T09:38:56.466Z,9.3
2019-03-20T09:39:58.512Z,9.5
2019-03-20T09:41:00.562Z,9.6
2019-03-20T09:42:02.595Z,9.7
2019-03-20T09:43:04.664Z,9.6
2019-03-20T09:44:06.727Z,9.7
2019-03-20T09:45:08.760Z,9.7
2019-03-20T09:46:10.858Z,9.6
2019-03-20T09:47:13.286Z,9.7
2019-03-20T09:48:15.353Z,9.9
2019-03-20T09:49:17.819Z,9.8
2019-03-20T09:50:19.889Z,9.8
2019-03-20T09:51:21.986Z,9.8
2019-03-20T09:52:24.304Z,9.5
2019-03-20T09:53:26.343Z,9.5
2019-03-20T09:54:28.365Z,9.4
2019-03-20T09:55:30.411Z,9.5
2019-03-20T09:56:32.502Z,9.4
2019-03-20T09:57:34.547Z,9.4
2019-03-20T09:58:37.132Z,9.5
2019-03-20T09:59:39.176Z,9.5
2019-03-20T10:00:41.224Z,9.5
2019-03-20T10:01:43.267Z,9.5
2019-03-20T10:02:45.316Z,9.4
2019-03-20T10:03:47.344Z,9.4
2019-03-20T10:04:49.383Z,9.5
2019-03-20T10:05:51.440Z,9.5
2019-03-20T10:06:53.769Z,9.5
2019-03-20T10:07:55.820Z,9.4
2019-03-20T10:08:57.864Z,9.5
2019-03-20T10:09:59.899Z,9.6
2019-03-20T10:11:02.438Z,9.6
2019-03-20T10:12:04.488Z,9.6
2019-03-20T10:13:06.522Z,9.7
2019-03-20T10:14:08.934Z,9.7
2019-03-20T10:15:11.277Z,9.8
2019-03-20T10:16:13.309Z,9.8
2019-03-20T10:17:18.140Z,9.9
2019-03-20T10:18:20.181Z,9.9
2019-03-20T10:19:22.242Z,9.9
2019-03-20T10:20:24.318Z,9.9
2019-03-20T10:21:26.356Z,9.9
2019-03-20T10:22:28.397Z,9.9
2019-03-20T10:23:30.422Z,10
2019-03-20T10:24:32.754Z,10.1
2019-03-20T10:25:46.014Z,10.1
2019-03-20T10:26:48.434Z,10.1
2019-03-20T10:27:53.097Z,10.1
2019-03-20T10:28:55.141Z,10.2
2019-03-20T10:29:57.452Z,10.2
2019-03-20T10:30:59.500Z,10.3
2019-03-20T10:32:01.527Z,10.3
2019-03-20T10:33:03.594Z,10.4
2019-03-20T10:34:05.637Z,10.4
2019-03-20T10:35:07.953Z,10.4
2019-03-20T10:36:10.001Z,10.4
2019-03-20T10:37:12.040Z,10.4
2019-03-20T10:38:14.082Z,10.5
2019-03-20T10:39:16.417Z,10.5
2019-03-20T10:40:18.743Z,10.5
2019-03-20T10:41:20.770Z,10.5
2019-03-20T10:42:22.808Z,10.6
2019-03-20T10:43:24.851Z,10.7
2019-03-20T10:44:26.905Z,10.7
2019-03-20T10:45:29.262Z,10.7
2019-03-20T10:46:31.312Z,10.7
2019-03-20T10:47:33.352Z,10.6
2019-03-20T10:48:35.448Z,10.7
2019-03-20T10:49:38.259Z,10.7
2019-03-20T10:50:40.983Z,10.6
2019-03-20T10:51:43.334Z,10.5
2019-03-20T10:52:45.396Z,10.5
2019-03-20T10:53:47.906Z,10.5
2019-03-20T10:54:50.512Z,10.5
2019-03-20T10:55:53.052Z,10.5
2019-03-20T10:56:55.366Z,10.6
2019-03-20T10:57:57.422Z,10.6
2019-03-20T10:58:59.891Z,10.6
2019-03-20T11:00:02.536Z,10.6
2019-03-20T11:01:04.607Z,10.6
2019-03-20T11:02:06.636Z,10.6
2019-03-20T11:03:08.750Z,10.6
2019-03-20T11:04:11.091Z,10.6
2019-03-20T11:05:13.164Z,10.6
2019-03-20T11:06:15.630Z,10.6
2019-03-20T11:07:18.064Z,10.4
2019-03-20T11:08:20.152Z,10.6
2019-03-20T11:09:22.227Z,10.6
2019-03-20T11:10:24.578Z,10.6
2019-03-20T11:11:28.762Z,10.6
2019-03-20T11:12:31.214Z,10.5
2019-03-20T11:13:33.257Z,10.6
2019-03-20T11:14:35.712Z,10.6
2019-03-20T11:15:37.760Z,10.5
2019-03-20T11:16:39.818Z,10.5
2019-03-20T11:17:41.893Z,10.6
2019-03-20T11:18:43.951Z,10.5
2019-03-20T11:19:46.052Z,10.5
2019-03-20T11:20:48.161Z,10.5
2019-03-20T11:21:50.183Z,10.5
2019-03-20T11:22:52.231Z,10.5
2019-03-20T11:23:54.276Z,10.4
2019-03-20T11:24:56.364Z,10.4
2019-03-20T11:26:01.100Z,10.3
2019-03-20T11:27:03.252Z,10.3
2019-03-20T11:28:05.573Z,10.4
2019-03-20T11:29:07.902Z,10.4
2019-03-20T11:30:10.233Z,10.3
2019-03-20T11:31:12.259Z,10.4
2019-03-20T11:32:15.585Z,10.4
2019-03-20T11:33:17.620Z,10.4
2019-03-20T11:34:19.942Z,10.4
2019-03-20T11:35:21.992Z,10.4
2019-03-20T11:36:24.045Z,10.4
2019-03-20T11:37:26.083Z,10.3
2019-03-20T11:38:28.111Z,10.3
2019-03-20T11:39:31.168Z,10.2
2019-03-20T11:40:33.254Z,10.2
2019-03-20T11:41:35.680Z,10.3
2019-03-20T11:42:37.733Z,10.3
2019-03-20T11:43:40.668Z,10.3
2019-03-20T11:44:42.981Z,10.3
2019-03-20T11:45:45.009Z,10.3
2019-03-20T11:46:47.402Z,10.2
2019-03-20T11:47:49.870Z,10.2
2019-03-20T11:48:51.906Z,10.2
2019-03-20T11:49:53.989Z,10.2
2019-03-20T11:50:56.030Z,10.3
2019-03-20T11:51:58.055Z,10.3
2019-03-20T11:53:00.105Z,10.3
2019-03-20T11:54:02.823Z,10.3
2019-03-20T11:55:04.922Z,10.3
2019-03-20T11:56:06.974Z,10.3
2019-03-20T11:57:09.015Z,10.3
2019-03-20T11:58:11.050Z,10.3
2019-03-20T11:59:13.134Z,10.3
2019-03-20T12:00:15.179Z,10.4
2019-03-20T12:01:17.943Z,10.3
2019-03-20T12:02:29.529Z,10.4
2019-03-20T12:03:31.583Z,10.4
2019-03-20T12:04:33.625Z,10.4
2019-03-20T12:05:35.674Z,10.4
2019-03-20T12:06:37.735Z,10.5
2019-03-20T12:07:39.763Z,10.5
2019-03-20T12:08:41.817Z,10.5
2019-03-20T12:09:43.855Z,10.5
2019-03-20T12:10:45.898Z,10.5
2019-03-20T12:11:47.918Z,10.5
2019-03-20T12:12:50.246Z,10.5
2019-03-20T12:13:52.283Z,10.5
2019-03-20T12:14:54.314Z,10.5
2019-03-20T12:15:56.364Z,10.5
2019-03-20T12:16:58.392Z,10.4
2019-03-20T12:18:01.113Z,10.4
2019-03-20T12:19:03.167Z,10.4
2019-03-20T12:20:05.247Z,10.4
2019-03-20T12:21:07.563Z,10.4
2019-03-20T12:22:09.612Z,10.4
2019-03-20T12:23:11.930Z,10.3
2019-03-20T12:24:13.984Z,10.4
2019-03-20T12:25:16.017Z,10.3
2019-03-20T12:26:18.344Z,10.3
2019-03-20T12:27:20.396Z,10.4
2019-03-20T12:28:22.806Z,10.4
2019-03-20T12:29:24.847Z,10.4
2019-03-20T12:30:26.895Z,10.3
2019-03-20T12:31:28.973Z,10.3
2019-03-20T12:32:31.031Z,10.3
2019-03-20T12:33:33.368Z,10.4
2019-03-20T12:34:35.399Z,10.4
2019-03-20T12:35:37.455Z,10.4
2019-03-20T12:36:39.513Z,10.4
2019-03-20T12:37:41.539Z,10.4
2019-03-20T12:38:43.576Z,10.5
2019-03-20T12:39:54.584Z,10.5
2019-03-20T12:40:57.006Z,10.5
2019-03-20T12:41:59.059Z,10.5
2019-03-20T12:43:01.135Z,10.5
2019-03-20T12:44:03.212Z,10.5
2019-03-20T12:45:05.526Z,10.5
2019-03-20T12:46:07.596Z,10.5
2019-03-20T12:47:09.640Z,10.5
2019-03-20T12:48:11.985Z,10.5
2019-03-20T12:49:14.050Z,10.6
2019-03-20T12:50:16.086Z,10.6
2019-03-20T12:51:18.129Z,10.6
2019-03-20T12:52:20.572Z,10.6
2019-03-20T12:53:22.613Z,10.6
2019-03-20T12:54:25.354Z,10.6
2019-03-20T12:55:27.395Z,10.6
2019-03-20T12:56:29.441Z,10.6
2019-03-20T12:57:31.475Z,10.6
2019-03-20T12:58:33.524Z,10.6
2019-03-20T12:59:35.845Z,10.6
2019-03-20T13:00:38.295Z,10.6
2019-03-20T13:01:40.372Z,10.6
2019-03-20T13:02:42.427Z,10.6
2019-03-20T13:03:44.480Z,10.6
2019-03-20T13:04:46.511Z,10.6
2019-03-20T13:05:48.560Z,10.6
2019-03-20T13:06:50.600Z,10.7
2019-03-20T13:07:52.668Z,10.8
2019-03-20T13:08:54.724Z,10.7
2019-03-20T13:10:04.828Z,10.7
2019-03-20T13:11:07.525Z,10.6
2019-03-20T13:12:10.524Z,10.6
2019-03-20T13:13:13.059Z,10.6
2019-03-20T13:14:15.507Z,10.6
2019-03-20T13:15:17.561Z,10.6
2019-03-20T13:16:19.605Z,10.6
2019-03-20T13:17:21.944Z,10.6
2019-03-20T13:18:23.966Z,10.6
2019-03-20T13:19:26.045Z,10.6
2019-03-20T13:20:28.392Z,10.6
2019-03-20T13:21:30.423Z,10.6
2019-03-20T13:22:32.466Z,10.6
2019-03-20T13:23:34.493Z,10.6
2019-03-20T13:24:36.546Z,10.6
2019-03-20T13:25:38.593Z,10.6
2019-03-20T13:26:40.629Z,10.6
2019-03-20T13:27:42.652Z,10.5
2019-03-20T13:28:44.695Z,10.6
2019-03-20T13:29:46.734Z,10.6
2019-03-20T13:30:50.350Z,10.6
2019-03-20T13:31:52.418Z,10.5
2019-03-20T13:32:54.484Z,10.5
2019-03-20T13:33:56.520Z,10.5
2019-03-20T13:34:58.575Z,10.5
2019-03-20T13:36:00.890Z,10.5
2019-03-20T13:37:02.940Z,10.6
2019-03-20T13:38:05.269Z,10.5
2019-03-20T13:39:07.348Z,10.5
2019-03-20T13:40:15.882Z,10.5
2019-03-20T13:41:18.221Z,10.5
2019-03-20T13:42:20.557Z,10.5
2019-03-20T13:43:22.582Z,10.5
2019-03-20T13:44:24.636Z,10.5
2019-03-20T13:45:26.682Z,10.5
2019-03-20T13:46:28.716Z,10.5
2019-03-20T13:47:30.772Z,10.4
2019-03-20T13:48:33.460Z,10.5
2019-03-20T13:49:35.508Z,10.4
2019-03-20T13:50:37.926Z,10.4
2019-03-20T13:51:39.978Z,10.4
2019-03-20T13:52:42.007Z,10.4
2019-03-20T13:53:44.050Z,10.4
2019-03-20T13:54:46.091Z,10.4
2019-03-20T13:55:48.137Z,10.4
2019-03-20T13:56:50.187Z,10.4
2019-03-20T13:57:52.228Z,10.4
2019-03-20T13:58:54.250Z,10.4
2019-03-20T13:59:56.296Z,10.4
2019-03-20T14:00:59.533Z,10.3
2019-03-20T14:02:02.340Z,10.4
2019-03-20T14:03:05.057Z,10.4
2019-03-20T14:04:07.199Z,10.4
2019-03-20T14:05:10.818Z,10.4
2019-03-20T14:06:13.565Z,10.4
2019-03-20T14:07:17.350Z,10.4
2019-03-20T14:08:20.761Z,10.3
2019-03-20T14:09:22.963Z,10.4
2019-03-20T14:10:29.319Z,10.4
2019-03-20T14:11:35.636Z,10.4
2019-03-20T14:12:42.396Z,10.3
2019-03-20T14:13:49.370Z,10.3